Time;durP1;ratioP1;P1;durP2;ratioP2;P2;SDS_P1;SDS_P2;PMS_P1;PMS_P2;Temp;Humidity;BMP_temperature;BMP_pressure;BME280_temperature;BME280_humidity;BME280_pressure;Samples;Min_cycle;Max_cycle;Signal;HPM_P1;HPM_P2
2023/11/22 00:01:53;;;;;;;8.80;8.50;;;22.70;58.80;;;;;;5009872;28;20449;-69
2023/11/22 00:04:20;;;;;;;9.23;8.93;;;22.70;58.80;;;;;;5003268;28;20474;-68
2023/11/22 00:06:47;;;;;;;8.87;8.57;;;22.70;58.90;;;;;;5002131;28;20477;-68
2023/11/22 00:09:14;;;;;;;9.00;8.80;;;22.70;58.90;;;;;;4996345;28;20825;-68
2023/11/22 00:11:42;;;;;;;9.43;9.13;;;22.60;58.80;;;;;;5003363;28;20535;-68
2023/11/22 00:14:09;;;;;;;9.13;8.83;;;22.70;59.00;;;;;;5003186;28;20516;-68
2023/11/22 00:16:37;;;;;;;8.63;8.43;;;22.60;59.00;;;;;;5003325;28;20794;-68
2023/11/22 00:19:05;;;;;;;8.87;8.47;;;22.60;59.00;;;;;;4996926;28;20948;-68
2023/11/22 00:21:31;;;;;;;8.70;8.40;;;22.60;59.10;;;;;;5003271;28;20450;-68
2023/11/22 00:23:58;;;;;;;8.40;8.20;;;22.50;59.00;;;;;;5000432;28;20497;-68
2023/11/22 00:26:25;;;;;;;8.67;8.47;;;22.50;59.10;;;;;;4999902;28;20567;-68
2023/11/22 00:28:54;;;;;;;8.97;8.67;;;22.50;59.10;;;;;;5001232;28;20450;-68
2023/11/22 00:31:20;;;;;;;8.67;8.40;;;22.50;59.10;;;;;;5003243;28;20496;-68
2023/11/22 00:33:47;;;;;;;8.27;8.03;;;22.50;59.20;;;;;;5002992;28;20559;-69
2023/11/22 00:36:16;;;;;;;9.03;8.63;;;22.40;59.20;;;;;;5003185;28;20474;-68
2023/11/22 00:38:43;;;;;;;9.03;8.63;;;22.40;59.30;;;;;;5002454;28;20447;-68
2023/11/22 00:41:11;;;;;;;8.13;7.73;;;22.30;59.30;;;;;;5002920;28;20451;-68
2023/11/22 00:43:38;;;;;;;8.57;8.27;;;22.30;59.40;;;;;;5003521;28;20470;-68
2023/11/22 00:46:07;;;;;;;8.63;8.33;;;22.30;59.40;;;;;;5003111;28;20443;-68
2023/11/22 00:48:33;;;;;;;8.97;8.67;;;22.30;59.40;;;;;;5002223;28;20456;-68
2023/11/22 00:51:01;;;;;;;8.60;8.40;;;22.30;59.40;;;;;;5003403;28;21017;-68
2023/11/22 00:53:29;;;;;;;10.27;9.10;;;22.20;59.20;;;;;;5002740;28;20474;-68
2023/11/22 00:55:56;;;;;;;9.20;8.90;;;22.20;59.30;;;;;;5002937;28;20443;-68
2023/11/22 00:58:23;;;;;;;8.80;8.47;;;22.20;59.40;;;;;;4992805;28;20520;-68
2023/11/22 01:00:50;;;;;;;9.23;8.93;;;22.20;59.50;;;;;;5004679;28;20478;-68
2023/11/22 01:03:18;;;;;;;8.97;8.67;;;22.20;59.60;;;;;;4999620;28;20493;-68
2023/11/22 01:05:46;;;;;;;8.47;8.17;;;22.20;59.60;;;;;;5005397;28;20446;-68
2023/11/22 01:08:13;;;;;;;8.33;8.13;;;22.20;59.70;;;;;;4991505;28;20454;-68
2023/11/22 01:10:40;;;;;;;9.00;8.63;;;22.10;59.60;;;;;;5005969;28;21040;-68
2023/11/22 01:13:07;;;;;;;10.33;9.83;;;22.10;59.60;;;;;;4994649;28;20502;-68
2023/11/22 01:15:34;;;;;;;8.40;8.20;;;22.10;59.70;;;;;;5002628;28;20474;-68
2023/11/22 01:18:01;;;;;;;8.70;8.50;;;22.10;59.70;;;;;;4994016;28;20533;-68
2023/11/22 01:20:29;;;;;;;9.47;9.13;;;22.10;59.80;;;;;;4997421;28;20466;-68
2023/11/22 01:22:56;;;;;;;8.80;8.60;;;22.00;59.70;;;;;;5004258;28;20490;-68
2023/11/22 01:25:23;;;;;;;8.80;8.50;;;22.00;59.70;;;;;;5005853;28;20480;-68
2023/11/22 01:27:50;;;;;;;8.53;8.23;;;22.00;59.70;;;;;;4988982;28;20967;-68
2023/11/22 01:30:18;;;;;;;8.97;8.70;;;22.00;59.70;;;;;;4995628;28;20510;-68
2023/11/22 01:32:45;;;;;;;9.00;8.70;;;22.00;59.70;;;;;;5002163;28;20485;-68
2023/11/22 01:35:12;;;;;;;8.70;8.30;;;22.00;59.80;;;;;;5001884;28;20453;-68
2023/11/22 01:37:40;;;;;;;9.70;9.40;;;22.00;59.80;;;;;;4998513;28;20879;-68
2023/11/22 01:40:09;;;;;;;9.40;9.10;;;22.00;59.80;;;;;;5002056;28;20474;-68
2023/11/22 01:42:36;;;;;;;8.73;8.50;;;22.00;59.80;;;;;;5002092;28;20467;-69
2023/11/22 01:45:04;;;;;;;9.60;9.30;;;22.00;59.90;;;;;;5004965;28;20440;-68
2023/11/22 01:47:31;;;;;;;8.40;8.20;;;21.90;59.80;;;;;;4998417;28;20447;-68
2023/11/22 01:49:58;;;;;;;9.60;9.30;;;21.90;59.80;;;;;;5003974;28;20487;-68
2023/11/22 01:52:26;;;;;;;9.00;8.70;;;21.90;59.80;;;;;;4999400;28;20474;-68
2023/11/22 01:54:54;;;;;;;8.40;8.10;;;21.90;59.90;;;;;;5003188;28;20474;-68
2023/11/22 01:57:22;;;;;;;7.90;7.70;;;21.90;59.90;;;;;;5004192;28;20474;-68
2023/11/22 01:59:48;;;;;;;8.67;8.47;;;21.90;59.90;;;;;;5002426;28;20474;-68
2023/11/22 02:02:15;;;;;;;8.90;8.60;;;21.80;59.90;;;;;;5005274;28;20474;-68
2023/11/22 02:04:43;;;;;;;8.83;8.63;;;21.90;59.90;;;;;;5005276;28;20474;-69
2023/11/22 02:07:10;;;;;;;8.50;8.23;;;21.80;59.90;;;;;;5000172;28;20447;-68
2023/11/22 02:09:37;;;;;;;8.73;8.43;;;21.90;59.90;;;;;;5001388;28;20479;-68
2023/11/22 02:12:06;;;;;;;8.60;8.30;;;21.80;59.90;;;;;;5001648;28;20977;-68
2023/11/22 02:14:33;;;;;;;9.40;9.10;;;21.80;60.00;;;;;;5001381;28;20495;-68
2023/11/22 02:17:01;;;;;;;9.33;9.03;;;21.80;59.90;;;;;;5002028;28;20454;-68
2023/11/22 02:19:30;;;;;;;9.70;9.40;;;21.80;60.00;;;;;;5001541;28;20938;-68
2023/11/22 02:21:57;;;;;;;9.70;9.30;;;21.80;60.00;;;;;;5003258;28;20541;-68
2023/11/22 02:24:26;;;;;;;8.53;8.30;;;21.80;60.00;;;;;;5004532;28;20509;-68
2023/11/22 02:26:53;;;;;;;8.73;8.53;;;21.80;60.00;;;;;;4999594;28;20453;-68
2023/11/22 02:29:20;;;;;;;8.90;8.70;;;21.80;60.10;;;;;;5001140;28;20470;-68
2023/11/22 02:31:47;;;;;;;9.00;8.70;;;21.80;60.10;;;;;;5001603;28;20458;-68
2023/11/22 02:34:15;;;;;;;9.00;8.70;;;21.80;60.00;;;;;;5004327;28;20469;-68
2023/11/22 02:36:44;;;;;;;8.50;8.10;;;21.80;60.00;;;;;;5001130;28;20450;-68
2023/11/22 02:39:13;;;;;;;9.93;9.53;;;21.70;60.00;;;;;;4993291;28;20442;-68
2023/11/22 02:41:41;;;;;;;9.07;8.80;;;21.70;60.00;;;;;;5001244;28;20467;-68
2023/11/22 02:44:09;;;;;;;8.30;8.10;;;21.70;59.90;;;;;;5003637;28;20860;-68
2023/11/22 02:46:36;;;;;;;9.50;9.20;;;21.70;59.90;;;;;;5004311;28;20470;-68
2023/11/22 02:49:04;;;;;;;9.40;9.10;;;21.70;59.90;;;;;;5001697;28;20497;-68
2023/11/22 02:51:31;;;;;;;8.93;8.63;;;21.70;59.90;;;;;;5000740;28;20483;-68
2023/11/22 02:53:58;;;;;;;9.47;9.17;;;21.70;59.90;;;;;;5001946;28;20494;-68
2023/11/22 02:56:25;;;;;;;10.37;9.97;;;21.70;59.90;;;;;;5004120;28;20450;-68
2023/11/22 02:58:53;;;;;;;9.23;8.93;;;21.70;60.00;;;;;;5003093;28;20452;-68
2023/11/22 03:01:20;;;;;;;9.73;9.33;;;21.60;59.90;;;;;;5000903;28;20478;-68
2023/11/22 03:03:47;;;;;;;9.47;9.20;;;21.70;60.00;;;;;;5000659;28;20495;-68
2023/11/22 03:06:14;;;;;;;8.70;8.40;;;21.60;60.10;;;;;;5003432;28;20485;-68
2023/11/22 03:08:42;;;;;;;8.20;8.00;;;21.60;60.10;;;;;;5003917;28;20446;-68
2023/11/22 03:11:09;;;;;;;8.57;8.37;;;21.70;60.30;;;;;;5000570;28;20482;-68
2023/11/22 03:13:36;;;;;;;9.10;8.90;;;21.60;60.10;;;;;;4999192;28;21008;-68
2023/11/22 03:16:04;;;;;;;10.03;9.63;;;21.60;60.10;;;;;;4993497;28;20889;-68
2023/11/22 03:18:32;;;;;;;9.30;9.10;;;21.60;60.10;;;;;;5000400;28;20471;-68
2023/11/22 03:20:59;;;;;;;8.70;8.50;;;21.60;60.10;;;;;;5002274;28;20466;-68
2023/11/22 03:23:26;;;;;;;9.67;9.47;;;21.60;60.10;;;;;;5003654;28;20481;-68
2023/11/22 03:25:53;;;;;;;8.93;8.63;;;21.60;60.10;;;;;;4994978;28;20450;-68
2023/11/22 03:28:20;;;;;;;8.90;8.60;;;21.60;60.00;;;;;;5000461;28;20475;-68
2023/11/22 03:30:46;;;;;;;8.97;8.67;;;21.60;60.00;;;;;;5000429;28;20510;-68
2023/11/22 03:33:15;;;;;;;9.97;9.67;;;21.60;60.00;;;;;;5000313;28;20499;-68
2023/11/22 03:35:42;;;;;;;9.47;9.17;;;21.60;60.10;;;;;;4992791;28;20525;-68
2023/11/22 03:38:09;;;;;;;9.03;8.83;;;21.50;59.90;;;;;;5000466;28;20519;-68
2023/11/22 03:40:36;;;;;;;9.43;9.13;;;21.60;60.10;;;;;;5000320;28;20501;-67
2023/11/22 03:43:03;;;;;;;8.80;8.60;;;21.60;60.00;;;;;;5002334;28;20494;-68
2023/11/22 03:45:30;;;;;;;8.63;8.43;;;21.50;59.90;;;;;;4996198;28;20485;-68
2023/11/22 03:47:57;;;;;;;9.43;9.03;;;21.50;59.90;;;;;;5002074;28;20474;-68
2023/11/22 03:50:25;;;;;;;9.47;8.83;;;21.60;60.00;;;;;;5000082;28;20506;-67
2023/11/22 03:52:52;;;;;;;9.53;9.23;;;21.50;60.00;;;;;;4995958;28;20530;-68
2023/11/22 03:55:19;;;;;;;9.80;9.50;;;21.50;59.90;;;;;;5003558;28;20485;-68
2023/11/22 03:57:46;;;;;;;8.27;8.07;;;21.50;59.90;;;;;;5003536;28;20474;-68
2023/11/22 04:00:13;;;;;;;9.13;8.83;;;21.50;60.00;;;;;;4992170;28;20525;-68
2023/11/22 04:02:41;;;;;;;9.67;9.30;;;21.50;60.00;;;;;;4996512;28;20482;-68
2023/11/22 04:05:09;;;;;;;8.97;8.70;;;21.50;60.00;;;;;;5002207;28;20457;-68
2023/11/22 04:07:39;;;;;;;8.93;8.60;;;21.50;60.00;;;;;;5003543;28;20878;-68
2023/11/22 04:10:06;;;;;;;10.30;10.00;;;21.50;60.10;;;;;;5000745;28;20453;-68
2023/11/22 04:12:33;;;;;;;9.60;9.30;;;21.50;60.10;;;;;;4997706;28;20451;-68
2023/11/22 04:15:00;;;;;;;9.90;9.60;;;21.50;60.10;;;;;;4999886;28;20474;-68
2023/11/22 04:17:27;;;;;;;9.73;9.43;;;21.50;60.10;;;;;;5003372;28;20477;-68
2023/11/22 04:19:54;;;;;;;9.63;9.40;;;21.50;60.10;;;;;;5005055;28;20478;-68
2023/11/22 04:22:21;;;;;;;8.97;8.70;;;21.50;60.10;;;;;;5002864;28;20484;-68
2023/11/22 04:24:49;;;;;;;9.20;9.00;;;21.50;60.00;;;;;;5003715;28;20485;-68
2023/11/22 04:27:16;;;;;;;8.70;8.43;;;21.50;60.10;;;;;;5003596;28;20475;-68
2023/11/22 04:29:43;;;;;;;9.23;8.93;;;21.50;60.00;;;;;;5003569;28;20485;-68
2023/11/22 04:32:10;;;;;;;9.73;9.50;;;21.50;60.00;;;;;;5011038;28;20533;-68
2023/11/22 04:34:37;;;;;;;10.27;9.87;;;21.40;59.90;;;;;;5003437;28;20533;-68
2023/11/22 04:37:05;;;;;;;9.60;9.30;;;21.50;60.00;;;;;;5005467;28;20493;-68
2023/11/22 04:39:32;;;;;;;10.20;9.90;;;21.50;59.90;;;;;;5006611;28;20481;-68
2023/11/22 04:42:00;;;;;;;9.57;9.23;;;21.40;59.90;;;;;;4990356;28;20480;-68
2023/11/22 04:44:27;;;;;;;10.30;10.00;;;21.40;59.80;;;;;;5006777;28;20494;-68
2023/11/22 04:46:54;;;;;;;9.10;8.90;;;21.40;59.80;;;;;;5006552;28;20470;-68
2023/11/22 04:49:21;;;;;;;10.37;9.97;;;21.40;59.80;;;;;;5006463;28;20485;-68
2023/11/22 04:51:49;;;;;;;9.77;9.40;;;21.40;59.80;;;;;;4990911;28;20611;-68
2023/11/22 04:54:15;;;;;;;10.47;10.10;;;21.40;59.70;;;;;;4995150;28;20474;-68
2023/11/22 04:56:42;;;;;;;10.57;10.17;;;21.40;59.70;;;;;;5003062;28;20475;-68
2023/11/22 04:59:11;;;;;;;9.50;9.30;;;21.40;59.70;;;;;;5005475;28;20457;-68
2023/11/22 05:01:38;;;;;;;10.30;10.00;;;21.40;59.70;;;;;;4998085;28;20866;-68
2023/11/22 05:04:06;;;;;;;11.47;11.17;;;21.40;59.60;;;;;;5004863;28;20490;-68
2023/11/22 05:06:32;;;;;;;11.00;10.70;;;21.40;59.70;;;;;;5006089;28;20490;-68
2023/11/22 05:08:59;;;;;;;10.43;10.17;;;21.40;59.70;;;;;;5004634;28;20474;-68
2023/11/22 05:11:26;;;;;;;11.67;11.20;;;21.40;59.70;;;;;;4997139;28;20479;-68
2023/11/22 05:13:53;;;;;;;10.40;10.10;;;21.40;59.80;;;;;;4991699;28;20490;-68
2023/11/22 05:16:21;;;;;;;10.83;10.53;;;21.40;59.80;;;;;;5002558;28;20482;-68
2023/11/22 05:18:48;;;;;;;10.83;10.53;;;21.40;59.80;;;;;;5002606;28;20497;-68
2023/11/22 05:21:15;;;;;;;10.83;10.53;;;21.40;59.80;;;;;;4994869;28;20491;-68
2023/11/22 05:23:42;;;;;;;10.17;9.87;;;21.40;59.80;;;;;;5002593;28;20502;-68
2023/11/22 05:26:09;;;;;;;10.13;9.83;;;21.40;59.80;;;;;;5004942;28;20450;-68
2023/11/22 05:28:36;;;;;;;10.07;9.77;;;21.40;59.80;;;;;;5005776;28;20929;-68
2023/11/22 05:31:03;;;;;;;10.10;9.80;;;21.40;59.90;;;;;;5004564;28;20517;-68
2023/11/22 05:33:32;;;;;;;10.90;10.50;;;21.40;59.90;;;;;;5005730;28;20567;-68
2023/11/22 05:35:59;;;;;;;10.30;9.90;;;21.40;59.90;;;;;;5004407;28;20446;-68
2023/11/22 05:38:26;;;;;;;10.37;10.07;;;21.40;59.90;;;;;;5002281;28;20837;-68
2023/11/22 05:40:53;;;;;;;10.93;10.53;;;21.40;59.80;;;;;;5003735;28;20449;-68
2023/11/22 05:43:25;;;;;;;9.97;9.67;;;21.30;59.70;;;;;;5000917;28;20493;-68
2023/11/22 05:45:52;;;;;;;11.80;11.40;;;21.40;59.80;;;;;;5002022;28;20461;-68
2023/11/22 05:48:19;;;;;;;10.63;10.10;;;21.30;59.80;;;;;;5005333;28;20850;-68
2023/11/22 05:50:47;;;;;;;10.47;10.17;;;21.30;59.70;;;;;;5004572;28;20520;-68
2023/11/22 05:53:19;;;;;;;10.67;10.27;;;21.30;59.70;;;;;;5005426;28;20500;-68
2023/11/22 05:55:46;;;;;;;9.40;9.17;;;21.30;59.60;;;;;;5005373;28;20457;-68
2023/11/22 05:58:16;;;;;;;9.47;9.17;;;21.30;59.60;;;;;;5002094;28;20447;-68
2023/11/22 06:00:43;;;;;;;10.80;10.50;;;21.30;59.60;;;;;;5004995;28;20450;-68
2023/11/22 06:03:10;;;;;;;11.07;10.67;;;21.30;59.60;;;;;;4998858;28;20996;-68
2023/11/22 06:05:37;;;;;;;10.23;9.93;;;21.30;59.50;;;;;;5001572;28;20874;-68
2023/11/22 06:08:06;;;;;;;10.60;10.30;;;21.30;59.60;;;;;;5003169;28;20501;-68
2023/11/22 06:10:33;;;;;;;11.83;11.43;;;21.30;59.70;;;;;;5004491;28;20473;-68
2023/11/22 06:13:00;;;;;;;11.23;10.93;;;21.30;59.80;;;;;;5003588;28;20459;-68
2023/11/22 06:15:27;;;;;;;11.20;10.80;;;21.30;59.70;;;;;;5001497;28;20470;-68
2023/11/22 06:17:54;;;;;;;12.10;11.70;;;21.30;59.90;;;;;;5001637;28;20482;-68
2023/11/22 06:20:23;;;;;;;11.77;11.47;;;21.30;60.00;;;;;;5004333;28;20474;-68
2023/11/22 06:22:51;;;;;;;12.60;12.20;;;21.30;60.00;;;;;;5004830;28;20454;-68
2023/11/22 06:25:19;;;;;;;11.57;11.27;;;21.30;60.10;;;;;;4993284;28;20443;-68
2023/11/22 06:27:46;;;;;;;11.63;11.23;;;21.30;60.20;;;;;;5001482;28;20475;-67
2023/11/22 06:30:14;;;;;;;12.33;11.93;;;21.30;60.20;;;;;;4993364;28;20955;-68
2023/11/22 06:32:42;;;;;;;11.83;11.40;;;21.30;60.20;;;;;;5001033;28;20491;-68
2023/11/22 06:35:11;;;;;;;11.67;11.27;;;21.30;60.30;;;;;;5003152;28;20938;-68
2023/11/22 06:37:38;;;;;;;12.10;11.70;;;21.30;60.20;;;;;;5004492;28;20529;-68
2023/11/22 06:40:05;;;;;;;13.33;12.30;;;21.30;60.50;;;;;;5002152;28;20468;-68
2023/11/22 06:42:34;;;;;;;12.30;11.60;;;21.30;61.30;;;;;;5000103;28;20470;-68
2023/11/22 06:45:01;;;;;;;16.10;15.03;;;21.30;62.00;;;;;;5001761;28;20443;-67
2023/11/22 06:47:28;;;;;;;12.70;11.30;;;21.30;62.80;;;;;;5004373;28;20458;-68
2023/11/22 06:49:55;;;;;;;15.53;14.03;;;21.40;63.10;;;;;;5003353;28;20446;-68
2023/11/22 06:52:22;;;;;;;19.27;17.20;;;21.40;64.30;;;;;;4995902;28;20514;-65
2023/11/22 06:54:49;;;;;;;15.30;13.87;;;21.40;66.00;;;;;;5004354;28;20960;-65
2023/11/22 06:57:16;;;;;;;13.97;12.73;;;21.40;69.00;;;;;;4995339;28;20878;-65
2023/11/22 06:59:44;;;;;;;13.60;12.60;;;21.40;70.80;;;;;;5000767;28;20489;-67
2023/11/22 07:02:11;;;;;;;15.27;13.80;;;21.40;68.60;;;;;;5000587;28;20438;-68
2023/11/22 07:04:39;;;;;;;14.90;13.97;;;21.40;67.30;;;;;;5000544;28;20491;-67
2023/11/22 07:07:05;;;;;;;14.07;12.87;;;21.40;66.40;;;;;;5002094;28;20538;-66
2023/11/22 07:09:32;;;;;;;13.87;12.63;;;21.40;66.00;;;;;;5003943;28;20560;-66
2023/11/22 07:11:59;;;;;;;11.97;11.20;;;21.40;65.70;;;;;;5002851;28;20595;-66
2023/11/22 07:14:26;;;;;;;13.80;12.37;;;21.40;65.50;;;;;;5000316;28;20525;-66
2023/11/22 07:16:55;;;;;;;13.47;12.33;;;21.40;65.30;;;;;;5000308;28;20481;-67
2023/11/22 07:19:23;;;;;;;13.57;12.40;;;21.40;65.20;;;;;;4992819;28;20447;-67
2023/11/22 07:21:50;;;;;;;14.60;13.27;;;21.50;65.30;;;;;;5000297;28;20462;-66
2023/11/22 07:24:18;;;;;;;14.33;13.53;;;21.50;65.10;;;;;;5003232;28;20470;-66
2023/11/22 07:26:45;;;;;;;15.07;13.83;;;21.50;64.90;;;;;;5003632;28;20446;-65
2023/11/22 07:29:12;;;;;;;15.13;14.17;;;21.50;64.90;;;;;;5001240;28;20478;-66
2023/11/22 07:31:39;;;;;;;15.10;14.20;;;21.50;64.90;;;;;;5000073;28;20526;-66
2023/11/22 07:34:11;;;;;;;14.80;14.00;;;21.50;64.70;;;;;;5001537;28;20934;-65
2023/11/22 07:36:40;;;;;;;15.03;14.20;;;21.50;64.70;;;;;;5003540;28;20454;-67
2023/11/22 07:39:07;;;;;;;14.97;14.17;;;21.50;64.60;;;;;;5002004;28;20870;-65
2023/11/22 07:41:34;;;;;;;14.70;13.70;;;21.50;64.50;;;;;;5000161;28;20497;-66
2023/11/22 07:44:01;;;;;;;14.80;13.70;;;21.50;64.40;;;;;;5000878;28;20492;-65
2023/11/22 07:46:28;;;;;;;13.60;12.90;;;21.50;64.30;;;;;;5003344;28;20477;-67
2023/11/22 07:48:55;;;;;;;14.27;12.97;;;21.50;64.20;;;;;;4995468;28;20447;-66
2023/11/22 07:51:24;;;;;;;15.63;14.53;;;21.50;64.10;;;;;;5003303;28;21028;-67
2023/11/22 07:53:51;;;;;;;14.97;13.77;;;21.50;64.00;;;;;;5005973;28;20523;-66
2023/11/22 07:56:18;;;;;;;14.60;13.70;;;21.50;63.90;;;;;;5007295;28;20481;-65
2023/11/22 07:58:45;;;;;;;14.63;13.73;;;21.50;63.80;;;;;;5007526;28;20473;-65
2023/11/22 08:01:13;;;;;;;15.00;13.70;;;21.50;63.70;;;;;;5005008;28;20473;-66
2023/11/22 08:03:44;;;;;;;17.03;15.90;;;21.50;63.60;;;;;;5009694;28;20973;-66
2023/11/22 08:06:10;;;;;;;14.67;13.97;;;21.50;63.50;;;;;;5005192;28;20445;-67
2023/11/22 08:08:39;;;;;;;14.73;14.03;;;21.50;63.40;;;;;;5003804;28;20447;-66
2023/11/22 08:11:14;;;;;;;14.03;13.33;;;21.50;63.30;;;;;;5003752;28;20508;-66
2023/11/22 08:13:42;;;;;;;14.87;13.70;;;21.50;63.20;;;;;;5003676;28;20470;-66
2023/11/22 08:16:10;;;;;;;14.30;13.33;;;21.50;63.20;;;;;;5005448;28;20454;-66
2023/11/22 08:18:36;;;;;;;14.23;13.57;;;21.50;63.20;;;;;;5009725;28;20482;-67
2023/11/22 08:21:03;;;;;;;12.00;11.50;;;21.50;63.10;;;;;;5004194;28;20474;-66
2023/11/22 08:23:32;;;;;;;12.47;11.27;;;21.50;63.00;;;;;;5006794;28;20465;-67
2023/11/22 08:26:00;;;;;;;13.30;12.40;;;21.50;63.00;;;;;;5006488;28;20528;-67
2023/11/22 08:28:28;;;;;;;15.07;14.07;;;21.60;63.10;;;;;;5003404;28;20474;-66
2023/11/22 08:30:55;;;;;;;12.50;12.10;;;21.50;62.80;;;;;;5003267;28;20946;-66
2023/11/22 08:33:23;;;;;;;12.50;11.60;;;21.50;62.80;;;;;;4995176;28;20490;-66
2023/11/22 08:35:52;;;;;;;12.60;11.97;;;21.60;62.90;;;;;;5003389;28;20453;-66
2023/11/22 08:38:19;;;;;;;12.90;12.40;;;21.50;62.80;;;;;;5006126;28;20442;-68
2023/11/22 08:40:46;;;;;;;12.03;11.50;;;21.50;62.60;;;;;;5006671;28;20450;-66
2023/11/22 08:43:16;;;;;;;12.37;11.87;;;21.60;62.80;;;;;;5004285;28;20852;-66
2023/11/22 08:45:43;;;;;;;12.37;11.67;;;21.60;62.70;;;;;;5003104;28;20462;-66
2023/11/22 08:48:10;;;;;;;11.90;11.50;;;21.50;62.50;;;;;;5004772;28;20473;-66
2023/11/22 08:50:37;;;;;;;11.87;11.40;;;21.60;62.60;;;;;;5009215;28;20474;-66
2023/11/22 08:53:05;;;;;;;13.03;12.43;;;21.60;62.50;;;;;;4995477;28;20486;-66
2023/11/22 08:55:33;;;;;;;12.80;12.30;;;21.60;62.50;;;;;;5006324;28;20950;-66
2023/11/22 08:58:00;;;;;;;11.73;11.33;;;21.60;62.40;;;;;;5005948;28;21004;-66
2023/11/22 09:00:32;;;;;;;12.90;12.30;;;21.60;62.40;;;;;;5002972;28;20497;-67
2023/11/22 09:02:59;;;;;;;11.83;11.43;;;21.60;62.40;;;;;;5002671;28;20498;-67
2023/11/22 09:05:26;;;;;;;12.40;11.87;;;21.60;62.30;;;;;;5001594;28;20447;-66
2023/11/22 09:07:55;;;;;;;13.63;12.97;;;21.60;62.30;;;;;;5002647;28;20454;-66
2023/11/22 09:10:22;;;;;;;12.90;12.40;;;21.50;62.10;;;;;;5010631;28;20927;-66
2023/11/22 09:12:49;;;;;;;12.43;11.73;;;21.60;62.20;;;;;;5002408;28;20541;-66
2023/11/22 09:15:18;;;;;;;12.60;12.10;;;21.60;62.10;;;;;;5004820;28;20922;-66
2023/11/22 09:17:48;;;;;;;12.37;11.80;;;21.60;62.00;;;;;;5005866;28;20453;-66
2023/11/22 09:20:16;;;;;;;11.60;11.20;;;21.60;62.00;;;;;;5003564;28;20453;-66
2023/11/22 09:22:47;;;;;;;12.57;12.07;;;21.60;62.00;;;;;;5002261;28;20463;-65
2023/11/22 09:25:16;;;;;;;12.57;12.17;;;21.60;62.00;;;;;;5004614;28;20451;-66
2023/11/22 09:27:46;;;;;;;14.07;13.57;;;21.60;62.00;;;;;;5007958;28;20447;-66
2023/11/22 09:30:19;;;;;;;12.40;12.00;;;21.60;61.90;;;;;;5004051;28;20474;-66
2023/11/22 09:32:48;;;;;;;12.57;12.10;;;21.60;61.90;;;;;;5005497;28;20492;-66
2023/11/22 09:35:16;;;;;;;13.27;12.57;;;21.60;61.80;;;;;;5003488;28;20884;-66
2023/11/22 09:37:44;;;;;;;13.00;12.30;;;21.60;61.80;;;;;;5002157;28;20531;-66
2023/11/22 09:40:13;;;;;;;11.57;11.23;;;21.60;61.70;;;;;;5003457;28;20447;-66
2023/11/22 09:42:41;;;;;;;13.83;13.30;;;21.60;61.70;;;;;;5005660;28;20842;-66
2023/11/22 09:45:09;;;;;;;13.47;12.87;;;21.60;61.60;;;;;;5004212;28;21045;-66
2023/11/22 09:47:36;;;;;;;12.60;12.20;;;21.60;61.60;;;;;;5002045;28;20501;-66
2023/11/22 09:50:10;;;;;;;13.73;13.23;;;21.60;61.60;;;;;;5002297;28;20485;-66
2023/11/22 09:52:41;;;;;;;11.77;11.30;;;21.60;61.60;;;;;;5005206;28;20481;-66
2023/11/22 09:55:10;;;;;;;12.73;12.30;;;21.60;61.60;;;;;;5004055;28;20541;-66
2023/11/22 09:57:39;;;;;;;12.30;11.90;;;21.60;61.60;;;;;;5001728;28;20526;-66
2023/11/22 10:00:13;;;;;;;12.97;12.57;;;21.60;61.50;;;;;;5002369;28;20479;-67
2023/11/22 10:02:40;;;;;;;12.97;12.57;;;21.60;61.50;;;;;;5005024;28;20497;-68
2023/11/22 10:05:09;;;;;;;11.67;11.27;;;21.60;61.50;;;;;;5005106;28;20467;-67
2023/11/22 10:07:37;;;;;;;12.20;11.80;;;21.60;61.40;;;;;;5004961;28;20462;-66
2023/11/22 10:10:05;;;;;;;12.10;11.60;;;21.60;61.40;;;;;;5004422;28;20875;-66
2023/11/22 10:12:32;;;;;;;11.80;11.13;;;21.60;61.40;;;;;;5001468;28;20482;-65
2023/11/22 10:15:12;;;;;;;12.90;12.30;;;21.60;61.30;;;;;;5001361;28;20474;-66
2023/11/22 10:17:39;;;;;;;11.20;10.73;;;21.60;61.30;;;;;;4995144;28;20446;-66
2023/11/22 10:20:10;;;;;;;12.07;11.63;;;21.60;61.30;;;;;;5002001;28;20474;-66
2023/11/22 10:22:47;;;;;;;12.63;12.20;;;21.60;61.20;;;;;;5004778;28;20501;-66
2023/11/22 10:25:18;;;;;;;13.93;13.13;;;21.60;61.20;;;;;;5004544;28;20451;-66
2023/11/22 10:27:45;;;;;;;12.13;11.80;;;21.60;61.20;;;;;;5004485;28;20442;-67
2023/11/22 10:30:14;;;;;;;11.83;11.53;;;21.60;61.90;;;;;;5003003;28;20452;-66
2023/11/22 10:32:42;;;;;;;12.30;11.80;;;21.60;61.10;;;;;;5001055;28;20849;-66
2023/11/22 10:35:09;;;;;;;12.17;11.87;;;21.60;61.10;;;;;;5001902;28;20478;-67
2023/11/22 10:37:36;;;;;;;12.60;12.20;;;21.60;61.00;;;;;;5004285;28;20478;-66
2023/11/22 10:40:09;;;;;;;12.80;12.40;;;21.60;61.00;;;;;;5004117;28;20477;-67
2023/11/22 10:42:36;;;;;;;11.90;11.40;;;21.60;60.90;;;;;;5000734;28;20792;-66
2023/11/22 10:45:07;;;;;;;12.30;11.93;;;21.60;60.90;;;;;;5000864;28;20478;-66
2023/11/22 10:47:38;;;;;;;12.00;11.60;;;21.60;60.90;;;;;;5000954;28;20813;-66
2023/11/22 10:50:07;;;;;;;12.20;11.90;;;21.60;60.90;;;;;;5008951;28;20446;-68
2023/11/22 10:52:36;;;;;;;12.83;12.33;;;21.70;61.00;;;;;;5000424;28;21006;-66
2023/11/22 10:55:07;;;;;;;12.97;12.57;;;21.60;60.80;;;;;;5000675;28;20454;-67
2023/11/22 10:57:38;;;;;;;12.80;12.30;;;21.60;60.80;;;;;;5003989;28;20442;-66
2023/11/22 11:00:07;;;;;;;12.10;11.70;;;21.70;60.90;;;;;;5003690;28;20449;-66
2023/11/22 11:02:41;;;;;;;11.70;11.30;;;21.70;60.90;;;;;;5000492;28;20470;-66
2023/11/22 11:05:17;;;;;;;12.80;12.40;;;21.70;60.90;;;;;;5001121;28;20453;-67
2023/11/22 11:07:49;;;;;;;12.77;12.27;;;21.70;60.80;;;;;;5003913;28;20446;-66
2023/11/22 11:10:20;;;;;;;11.97;11.67;;;21.70;60.80;;;;;;5002068;28;20972;-66
2023/11/22 11:12:47;;;;;;;12.37;11.93;;;21.70;60.80;;;;;;5000351;28;20525;-66
2023/11/22 11:15:17;;;;;;;11.77;11.37;;;21.70;60.70;;;;;;5001764;28;20447;-66
2023/11/22 11:17:47;;;;;;;11.37;10.97;;;21.70;60.70;;;;;;4998451;28;20947;-68
2023/11/22 11:20:17;;;;;;;10.90;10.50;;;21.70;60.70;;;;;;5000432;28;20552;-66
2023/11/22 11:22:45;;;;;;;12.13;11.63;;;21.70;60.60;;;;;;5000350;28;20471;-66
2023/11/22 11:25:16;;;;;;;11.97;11.57;;;21.70;60.60;;;;;;5001536;28;20863;-67
2023/11/22 11:27:44;;;;;;;11.00;10.70;;;21.80;60.60;;;;;;5003221;28;20474;-66
2023/11/22 11:30:48;;;;;;;11.73;11.33;;;21.70;60.50;;;;;;5002585;28;20957;-66
2023/11/22 11:33:17;;;;;;;11.90;11.50;;;21.70;60.40;;;;;;4970383;28;20545;-67
2023/11/22 11:35:46;;;;;;;13.10;12.63;;;21.70;60.40;;;;;;5003550;28;20867;-66
2023/11/22 11:38:13;;;;;;;10.80;10.40;;;21.70;60.40;;;;;;5002202;28;20529;-67
2023/11/22 11:40:42;;;;;;;11.90;11.60;;;21.70;60.40;;;;;;5000066;28;20443;-66
2023/11/22 11:43:11;;;;;;;12.43;11.97;;;21.70;60.40;;;;;;5000457;28;20486;-66
2023/11/22 11:45:40;;;;;;;11.33;10.80;;;21.70;60.40;;;;;;5003442;28;20530;-66
2023/11/22 11:48:07;;;;;;;10.93;10.63;;;21.70;60.30;;;;;;5003081;28;20522;-66
2023/11/22 11:50:34;;;;;;;12.43;12.00;;;21.80;60.40;;;;;;5000051;28;20443;-66
2023/11/22 11:53:02;;;;;;;11.63;11.23;;;21.80;60.70;;;;;;5000151;28;20518;-66
2023/11/22 11:55:29;;;;;;;12.00;11.60;;;21.80;60.40;;;;;;5003047;28;20469;-66
2023/11/22 11:57:56;;;;;;;11.00;10.70;;;21.70;60.30;;;;;;5003345;28;20442;-65
2023/11/22 12:00:24;;;;;;;12.27;11.87;;;21.70;60.20;;;;;;5000838;28;20489;-66
2023/11/22 12:02:52;;;;;;;12.60;12.10;;;21.70;60.20;;;;;;4999843;28;20467;-66
2023/11/22 12:05:22;;;;;;;12.10;11.80;;;21.70;60.20;;;;;;5001658;28;20483;-67
2023/11/22 12:07:49;;;;;;;12.37;11.97;;;21.70;60.10;;;;;;5003241;28;20546;-67
2023/11/22 12:10:16;;;;;;;12.47;11.77;;;21.80;60.20;;;;;;5001598;28;20450;-66
2023/11/22 12:12:46;;;;;;;13.10;12.70;;;21.70;60.10;;;;;;4996635;28;20524;-68
2023/11/22 12:15:15;;;;;;;13.03;12.67;;;21.70;60.00;;;;;;4995169;28;20550;-66
2023/11/22 12:17:43;;;;;;;11.83;11.53;;;21.80;60.10;;;;;;5003220;28;20446;-66
2023/11/22 12:20:13;;;;;;;11.90;11.60;;;21.70;60.00;;;;;;5002420;28;20481;-66
2023/11/22 12:22:42;;;;;;;13.03;12.70;;;21.70;60.00;;;;;;4999626;28;20502;-66
2023/11/22 12:25:09;;;;;;;12.33;11.97;;;21.70;60.00;;;;;;5000055;28;20450;-66
2023/11/22 12:27:40;;;;;;;11.53;11.17;;;21.70;60.10;;;;;;5003074;28;20956;-66
2023/11/22 12:30:09;;;;;;;10.93;10.63;;;21.70;60.00;;;;;;5002790;28;20448;-66
2023/11/22 12:32:40;;;;;;;12.37;11.87;;;21.70;60.00;;;;;;5003562;28;20808;-66
2023/11/22 12:35:11;;;;;;;11.57;11.20;;;21.80;60.10;;;;;;5002923;28;20477;-68
2023/11/22 12:37:38;;;;;;;10.87;10.57;;;21.80;60.10;;;;;;4999667;28;20449;-66
2023/11/22 12:40:11;;;;;;;12.67;12.30;;;21.80;60.10;;;;;;5000963;28;20492;-67